Terminal Aerodrome Forecast
Issued by NWS Birmingham, AL

Home | Current Version | Previous Version | Text Only | Print | Product List | Glossary On
Versions: 1 2 3 4 5 6 7 8 9 10 11 12 13 14 15 16 17 18
856
FTUS44 KBMX 272336
TAFBHM
TAF
KBHM 272336Z 2800/2824 26008KT P6SM SCT250
     FM280100 23003KT P6SM SCT250
     FM281500 26008KT P6SM OVC100 PROB30 2818/2822 4SM TSRA
      BKN050CB=

USA.gov is the U.S. government's official web portal to all federal, state and local government web resources and services.